Time;durP1;ratioP1;P1;durP2;ratioP2;P2;SDS_P1;SDS_P2;PMS_P1;PMS_P2;Temp;Humidity;BMP_temperature;BMP_pressure;BME280_temperature;BME280_humidity;BME280_pressure;Samples;Min_cycle;Max_cycle;Signal;HPM_P1;HPM_P2
2022/09/17 00:00:21;;;;;;;;;;;11.80;99.90;;;;;;5074096;28;19950;-56
2022/09/17 00:02:54;;;;;;;;;;;11.60;99.90;;;;;;5073529;28;19927;-57
2022/09/17 00:05:23;;;;;;;;;;;11.60;99.90;;;;;;5074979;28;19920;-57
2022/09/17 00:07:50;;;;;;;;;;;11.50;99.90;;;;;;5074054;28;20402;-56
2022/09/17 00:10:16;;;;;;;;;;;11.50;99.90;;;;;;5074320;28;20015;-57
2022/09/17 00:12:41;;;;;;;;;;;11.50;99.90;;;;;;5074220;28;20015;-57
2022/09/17 00:15:07;;;;;;;;;;;11.50;99.90;;;;;;5074493;28;20015;-56
2022/09/17 00:17:33;;;;;;;;;;;11.50;99.90;;;;;;5055440;28;20378;-57
2022/09/17 00:19:58;;;;;;;;;;;11.50;99.90;;;;;;5074064;28;19927;-57
2022/09/17 00:22:24;;;;;;;;;;;11.50;99.90;;;;;;5073652;28;19957;-56
2022/09/17 00:24:49;;;;;;;;;;;11.50;99.90;;;;;;5073584;28;20007;-56
2022/09/17 00:27:15;;;;;;;;;;;11.50;99.90;;;;;;5073420;28;19964;-57
2022/09/17 00:29:40;;;;;;;;;;;11.50;99.90;;;;;;5055941;28;19916;-57
2022/09/17 00:32:07;;;;;;;;;;;11.50;99.90;;;;;;5055577;28;19928;-57
2022/09/17 00:34:32;;;;;;;;;;;11.50;99.90;;;;;;5073427;28;19935;-57
2022/09/17 00:36:58;;;;;;;;;;;11.50;99.90;;;;;;5073210;28;19920;-59
2022/09/17 00:39:24;;;;;;;;;;;11.60;99.90;;;;;;5073540;28;19924;-58
2022/09/17 00:41:49;;;;;;;;;;;11.60;99.90;;;;;;5061370;28;19920;-57
2022/09/17 00:44:33;;;;;;;;;;;11.70;99.90;;;;;;5055702;28;19928;-57
2022/09/17 00:46:59;;;;;;;;;;;11.70;99.90;;;;;;5072814;28;19921;-56
2022/09/17 00:49:27;;;;;;;;;;;11.70;99.90;;;;;;5073826;28;19927;-56
2022/09/17 00:52:01;;;;;;;;;;;11.70;99.90;;;;;;5073793;28;19920;-56
2022/09/17 00:54:27;;;;;;;;;;;11.60;99.90;;;;;;5073584;28;20338;-56
2022/09/17 00:56:52;;;;;;;;;;;11.70;99.90;;;;;;5073434;28;19938;-57
2022/09/17 00:59:18;;;;;;;;;;;11.50;99.90;;;;;;5073337;28;20012;-57
2022/09/17 01:01:45;;;;;;;;;;;11.40;99.90;;;;;;5072788;28;20473;-56
2022/09/17 01:04:18;;;;;;;;;;;11.40;99.90;;;;;;5072936;28;20401;-57
2022/09/17 01:06:55;;;;;;;;;;;11.40;99.90;;;;;;5073155;28;20327;-57
2022/09/17 01:09:56;;;;;;;;;;;11.40;99.90;;;;;;5073459;28;19920;-59
2022/09/17 01:12:24;;;;;;;;;;;11.40;99.90;;;;;;4991018;28;19933;-57
2022/09/17 01:14:52;;;;;;;;;;;11.20;99.90;;;;;;5057094;28;19924;-56
2022/09/17 01:17:26;;;;;;;;;;;11.30;99.90;;;;;;5072423;28;19920;-57
2022/09/17 01:20:11;;;;;;;;;;;11.20;99.90;;;;;;5055354;28;19924;-56
2022/09/17 01:22:42;;;;;;;;;;;11.20;99.90;;;;;;5072371;28;19927;-56
2022/09/17 01:25:19;;;;;;;;;;;11.20;99.90;;;;;;5072890;28;19966;-56
2022/09/17 01:28:06;;;;;;;;;;;11.10;99.90;;;;;;5057493;28;20011;-57
2022/09/17 01:30:34;;;;;;;;;;;11.10;99.90;;;;;;5072483;28;19930;-57
2022/09/17 01:33:03;;;;;;;;;;;11.00;99.90;;;;;;5072758;28;19971;-56
2022/09/17 01:35:28;;;;;;;;;;;10.90;99.90;;;;;;5077337;28;20286;-60
2022/09/17 01:38:12;;;;;;;;;;;10.90;99.90;;;;;;5061909;28;19920;-55
2022/09/17 01:40:41;;;;;;;;;;;10.90;99.90;;;;;;5073050;28;19978;-56
2022/09/17 01:43:13;;;;;;;;;;;10.70;99.90;;;;;;5072954;28;19974;-56
2022/09/17 01:45:39;;;;;;;;;;;10.60;99.90;;;;;;5070735;28;19966;-56
2022/09/17 01:48:05;;;;;;;;;;;10.60;99.90;;;;;;5071036;28;19928;-56
2022/09/17 01:50:36;;;;;;;;;;;10.60;99.90;;;;;;5054268;28;19924;-57
2022/09/17 01:53:02;;;;;;;;;;;10.70;99.90;;;;;;5072492;28;19924;-56
2022/09/17 01:55:31;;;;;;;;;;;10.90;99.90;;;;;;5071863;28;19921;-60
2022/09/17 01:57:59;;;;;;;;;;;10.80;99.90;;;;;;5071580;28;20374;-56
2022/09/17 02:00:25;;;;;;;;;;;11.10;99.90;;;;;;5054249;28;20315;-62
2022/09/17 02:03:11;;;;;;;;;;;10.80;99.90;;;;;;5072691;28;19920;-59
2022/09/17 02:06:12;;;;;;;;;;;10.80;99.90;;;;;;5054614;28;20374;-57
2022/09/17 02:08:52;;;;;;;;;;;10.80;99.90;;;;;;4990400;28;19925;-59
2022/09/17 02:11:18;;;;;;;;;;;10.70;99.90;;;;;;5063604;28;19967;-58
2022/09/17 02:13:44;;;;;;;;;;;10.70;99.90;;;;;;5071986;28;19960;-58
2022/09/17 02:16:12;;;;;;;;;;;11.00;99.90;;;;;;5072221;28;20337;-57
2022/09/17 02:18:48;;;;;;;;;;;10.90;99.90;;;;;;5072333;28;19926;-56
2022/09/17 02:21:15;;;;;;;;;;;10.90;99.90;;;;;;5071028;28;19999;-56
2022/09/17 02:23:49;;;;;;;;;;;10.80;99.90;;;;;;5071224;28;20263;-57
2022/09/17 02:26:17;;;;;;;;;;;10.80;99.90;;;;;;5070900;28;19936;-56
2022/09/17 02:28:42;;;;;;;;;;;10.70;99.90;;;;;;5071523;28;19982;-58
2022/09/17 02:31:08;;;;;;;;;;;10.70;99.90;;;;;;5072016;28;19977;-57
2022/09/17 02:33:34;;;;;;;;;;;10.60;99.90;;;;;;5071290;28;20385;-57
2022/09/17 02:36:00;;;;;;;;;;;10.60;99.90;;;;;;5075982;28;19932;-58
2022/09/17 02:38:28;;;;;;;;;;;10.50;99.90;;;;;;5062207;28;20285;-57
2022/09/17 02:41:00;;;;;;;;;;;10.50;99.90;;;;;;5072290;28;19920;-65
2022/09/17 02:43:33;;;;;;;;;;;10.40;99.90;;;;;;5050651;28;19978;-62
2022/09/17 02:46:07;;;;;;;;;;;10.30;99.90;;;;;;5072121;28;19926;-62
2022/09/17 02:48:52;;;;;;;;;;;10.30;99.90;;;;;;5071998;28;19920;-60
2022/09/17 02:51:32;;;;;;;;;;;10.30;99.90;;;;;;5071610;28;19920;-62
2022/09/17 02:54:16;;;;;;;;;;;10.20;99.90;;;;;;5072132;28;19920;-63
2022/09/17 02:56:47;;;;;;;;;;;10.10;99.90;;;;;;5071961;28;19931;-65
2022/09/17 02:59:18;;;;;;;;;;;10.10;99.90;;;;;;5071848;28;19920;-58
2022/09/17 03:01:48;;;;;;;;;;;10.00;99.90;;;;;;5071918;28;19967;-61
2022/09/17 03:04:15;;;;;;;;;;;10.00;99.90;;;;;;5053849;28;19927;-57
2022/09/17 03:06:42;;;;;;;;;;;9.90;99.90;;;;;;5074509;28;20015;-60
2022/09/17 03:09:08;;;;;;;;;;;10.10;99.90;;;;;;5075677;28;19920;-61
2022/09/17 03:11:34;;;;;;;;;;;9.90;99.90;;;;;;5074976;28;20422;-64
2022/09/17 03:13:59;;;;;;;;;;;10.20;99.90;;;;;;5074615;28;20046;-64
2022/09/17 03:16:25;;;;;;;;;;;10.30;99.90;;;;;;5075202;28;19982;-64
2022/09/17 03:18:50;;;;;;;;;;;10.30;99.90;;;;;;5075472;28;19943;-64
2022/09/17 03:21:16;;;;;;;;;;;10.40;99.90;;;;;;5075293;28;19927;-57
2022/09/17 03:23:41;;;;;;;;;;;10.30;99.90;;;;;;5075025;28;20007;-56
2022/09/17 03:26:07;;;;;;;;;;;10.30;99.90;;;;;;5075067;28;19959;-56
2022/09/17 03:28:32;;;;;;;;;;;10.40;99.90;;;;;;5074371;28;19982;-58
2022/09/17 03:30:58;;;;;;;;;;;10.30;99.90;;;;;;5075115;28;19989;-57
2022/09/17 03:33:23;;;;;;;;;;;10.20;99.90;;;;;;5074919;28;19927;-57
2022/09/17 03:35:49;;;;;;;;;;;10.20;99.90;;;;;;5080029;28;19921;-60
2022/09/17 03:38:15;;;;;;;;;;;10.10;99.90;;;;;;5046326;28;19921;-56
2022/09/17 03:40:41;;;;;;;;;;;10.10;99.90;;;;;;5074529;28;20015;-57
2022/09/17 03:43:06;;;;;;;;;;;10.00;99.90;;;;;;5073829;28;19921;-56
2022/09/17 03:45:32;;;;;;;;;;;10.20;99.90;;;;;;5056851;28;19924;-56
2022/09/17 03:47:57;;;;;;;;;;;9.90;99.90;;;;;;5075171;28;20390;-56
2022/09/17 03:50:23;;;;;;;;;;;9.80;99.90;;;;;;5074745;28;19969;-59
2022/09/17 03:52:49;;;;;;;;;;;9.70;99.90;;;;;;5074690;28;19932;-57
2022/09/17 03:55:16;;;;;;;;;;;9.70;99.90;;;;;;5074809;28;20377;-59
2022/09/17 03:57:42;;;;;;;;;;;9.80;99.90;;;;;;5074060;28;19920;-56
2022/09/17 04:00:08;;;;;;;;;;;9.80;99.90;;;;;;5074449;28;19920;-59
2022/09/17 04:02:33;;;;;;;;;;;9.80;99.90;;;;;;5073733;28;19931;-56
2022/09/17 04:04:59;;;;;;;;;;;10.00;99.90;;;;;;5074728;28;20316;-56
2022/09/17 04:07:24;;;;;;;;;;;9.90;99.90;;;;;;5074070;28;19920;-57
2022/09/17 04:09:50;;;;;;;;;;;10.40;99.90;;;;;;5074341;28;19917;-56
2022/09/17 04:12:15;;;;;;;;;;;10.10;99.90;;;;;;5056034;28;20359;-56
2022/09/17 04:14:41;;;;;;;;;;;10.00;99.90;;;;;;5074115;28;19924;-61
2022/09/17 04:17:06;;;;;;;;;;;10.00;99.90;;;;;;5064648;28;20274;-57
2022/09/17 04:19:32;;;;;;;;;;;10.00;99.90;;;;;;5073182;28;20378;-57
2022/09/17 04:21:57;;;;;;;;;;;10.00;99.90;;;;;;5073983;28;19921;-58
2022/09/17 04:24:23;;;;;;;;;;;10.00;99.90;;;;;;5074084;28;19963;-59
2022/09/17 04:26:48;;;;;;;;;;;10.10;99.90;;;;;;5073823;28;19920;-56
2022/09/17 04:29:14;;;;;;;;;;;10.10;99.90;;;;;;5073958;28;19920;-57
2022/09/17 04:31:40;;;;;;;;;;;10.20;99.90;;;;;;5073964;28;19968;-56
2022/09/17 04:34:05;;;;;;;;;;;10.10;99.90;;;;;;5073733;28;19920;-57
2022/09/17 04:36:31;;;;;;;;;;;10.10;99.90;;;;;;5073599;28;19931;-58
2022/09/17 04:38:56;;;;;;;;;;;10.10;99.90;;;;;;5068353;28;19921;-57
2022/09/17 04:41:22;;;;;;;;;;;10.00;99.90;;;;;;5073821;28;19924;-62
2022/09/17 04:43:48;;;;;;;;;;;10.00;99.90;;;;;;5073405;28;19964;-57
2022/09/17 04:46:15;;;;;;;;;;;10.00;99.90;;;;;;5073608;28;19974;-62
2022/09/17 04:48:41;;;;;;;;;;;10.00;99.90;;;;;;5073805;28;19947;-60
2022/09/17 04:51:06;;;;;;;;;;;9.90;99.90;;;;;;5072938;28;20366;-64
2022/09/17 04:53:32;;;;;;;;;;;10.40;99.90;;;;;;5073725;28;20073;-62
2022/09/17 04:55:57;;;;;;;;;;;9.80;99.90;;;;;;5073526;28;19935;-58
2022/09/17 04:58:23;;;;;;;;;;;9.80;99.90;;;;;;5072465;28;19929;-57
2022/09/17 05:00:48;;;;;;;;;;;9.80;99.90;;;;;;5073485;28;19921;-56
2022/09/17 05:03:14;;;;;;;;;;;9.70;99.90;;;;;;5073455;28;19927;-59
2022/09/17 05:05:40;;;;;;;;;;;10.20;99.90;;;;;;5073343;28;19943;-60
2022/09/17 05:08:07;;;;;;;;;;;10.20;99.90;;;;;;5055258;28;19967;-59
2022/09/17 05:10:32;;;;;;;;;;;9.60;99.90;;;;;;5072756;28;19935;-62
2022/09/17 05:12:58;;;;;;;;;;;9.50;99.90;;;;;;5072686;28;20282;-60
2022/09/17 05:15:24;;;;;;;;;;;9.50;99.90;;;;;;5055200;28;19924;-61
2022/09/17 05:17:50;;;;;;;;;;;9.40;99.90;;;;;;5063571;28;19958;-60
2022/09/17 05:20:16;;;;;;;;;;;10.10;99.90;;;;;;5072231;28;19959;-61
2022/09/17 05:22:46;;;;;;;;;;;9.30;99.90;;;;;;5072207;28;20126;-57
2022/09/17 05:25:12;;;;;;;;;;;9.30;99.90;;;;;;5073172;28;19929;-59
2022/09/17 05:27:38;;;;;;;;;;;9.30;99.90;;;;;;5072630;28;20012;-56
2022/09/17 05:30:04;;;;;;;;;;;9.20;99.90;;;;;;5072578;28;20026;-56
2022/09/17 05:32:30;;;;;;;;;;;9.20;99.90;;;;;;5072371;28;19924;-58
2022/09/17 05:34:55;;;;;;;;;;;9.20;99.90;;;;;;5072181;28;20263;-57
2022/09/17 05:37:21;;;;;;;;;;;9.20;99.90;;;;;;5072660;28;19970;-56
2022/09/17 05:39:46;;;;;;;;;;;9.20;99.90;;;;;;5054936;28;20274;-56
2022/09/17 05:42:12;;;;;;;;;;;9.20;99.90;;;;;;5072482;28;20379;-56
2022/09/17 05:44:38;;;;;;;;;;;9.20;99.90;;;;;;5054411;28;19970;-58
2022/09/17 05:47:03;;;;;;;;;;;9.40;99.90;;;;;;5069236;28;19927;-61
2022/09/17 05:49:29;;;;;;;;;;;10.60;99.90;;;;;;5071176;28;19920;-57
2022/09/17 05:51:54;;;;;;;;;;;9.70;99.90;;;;;;5071808;28;19921;-56
2022/09/17 05:54:20;;;;;;;;;;;9.80;99.90;;;;;;5072261;28;19967;-56
2022/09/17 05:56:46;;;;;;;;;;;9.90;99.90;;;;;;5071917;28;20275;-56
2022/09/17 05:59:11;;;;;;;;;;;10.00;99.90;;;;;;5071854;28;19990;-56
2022/09/17 06:01:37;;;;;;;;;;;10.10;99.90;;;;;;5071750;28;19924;-57
2022/09/17 06:04:03;;;;;;;;;;;10.30;99.90;;;;;;5070630;28;19920;-57
2022/09/17 06:06:29;;;;;;;;;;;10.50;99.90;;;;;;5071354;28;19978;-57
2022/09/17 06:08:58;;;;;;;;;;;10.70;99.90;;;;;;5071688;28;20015;-56
2022/09/17 06:11:24;;;;;;;;;;;10.90;99.90;;;;;;5063264;28;20331;-56
2022/09/17 06:13:53;;;;;;;;;;;11.10;99.90;;;;;;5068300;28;19985;-58
2022/09/17 06:16:19;;;;;;;;;;;11.30;99.90;;;;;;5069271;28;19920;-57
2022/09/17 06:18:45;;;;;;;;;;;11.50;99.90;;;;;;5060698;28;19920;-57
2022/09/17 06:21:10;;;;;;;;;;;11.60;99.90;;;;;;5060778;28;19943;-57
2022/09/17 06:23:36;;;;;;;;;;;11.50;99.90;;;;;;5062735;28;20007;-58
2022/09/17 06:26:03;;;;;;;;;;;11.30;99.90;;;;;;5041800;28;19924;-61
2022/09/17 06:28:28;;;;;;;;;;;11.00;99.90;;;;;;5062494;28;19981;-64
2022/09/17 06:30:56;;;;;;;;;;;10.90;99.90;;;;;;5063277;28;19924;-65
2022/09/17 06:33:22;;;;;;;;;;;10.80;99.90;;;;;;5061134;28;19921;-60
2022/09/17 06:35:47;;;;;;;;;;;10.70;99.90;;;;;;5064408;28;19955;-63
2022/09/17 06:38:14;;;;;;;;;;;10.60;99.90;;;;;;5060292;28;19924;-58
2022/09/17 06:40:40;;;;;;;;;;;10.60;99.90;;;;;;5066806;28;19928;-60
2022/09/17 06:43:06;;;;;;;;;;;10.50;99.90;;;;;;5069504;28;20382;-59
2022/09/17 06:45:31;;;;;;;;;;;10.50;99.90;;;;;;5068816;28;19975;-57
2022/09/17 06:47:57;;;;;;;;;;;10.70;99.90;;;;;;5053210;28;19928;-62
2022/09/17 06:50:23;;;;;;;;;;;10.90;99.90;;;;;;5052997;28;19943;-65
2022/09/17 06:52:52;;;;;;;;;;;11.00;99.90;;;;;;5069295;28;20321;-65
2022/09/17 06:55:18;;;;;;;;;;;10.90;99.90;;;;;;5069315;28;19916;-64
2022/09/17 06:57:44;;;;;;;;;;;11.20;99.90;;;;;;5070691;28;19967;-65
2022/09/17 07:00:11;;;;;;;;;;;11.20;99.90;;;;;;5070081;28;19928;-65
2022/09/17 07:02:36;;;;;;;;;;;11.00;99.90;;;;;;5071462;28;19924;-63
2022/09/17 07:05:02;;;;;;;;;;;11.20;99.90;;;;;;5075536;28;19930;-65
2022/09/17 07:07:28;;;;;;;;;;;11.40;99.90;;;;;;5075071;28;19920;-57
2022/09/17 07:09:54;;;;;;;;;;;11.60;99.90;;;;;;5066284;28;19986;-67
2022/09/17 07:12:19;;;;;;;;;;;11.60;99.90;;;;;;5074015;28;19959;-57
2022/09/17 07:14:46;;;;;;;;;;;11.50;99.90;;;;;;5056407;28;19920;-57
2022/09/17 07:17:12;;;;;;;;;;;11.70;99.90;;;;;;5074784;28;19965;-57
2022/09/17 07:19:38;;;;;;;;;;;12.00;99.90;;;;;;5074837;28;19928;-57
2022/09/17 07:22:03;;;;;;;;;;;12.20;99.90;;;;;;5074567;28;20003;-57
2022/09/17 07:24:29;;;;;;;;;;;12.60;99.90;;;;;;5056756;28;20298;-57
2022/09/17 07:26:54;;;;;;;;;;;13.20;99.90;;;;;;5074931;28;20010;-58
2022/09/17 07:29:22;;;;;;;;;;;12.90;99.90;;;;;;5074817;28;19959;-57
2022/09/17 07:31:47;;;;;;;;;;;12.40;99.90;;;;;;5072620;28;19927;-57
2022/09/17 07:34:13;;;;;;;;;;;12.30;99.90;;;;;;5074366;28;19920;-58
2022/09/17 07:36:39;;;;;;;;;;;11.90;99.90;;;;;;5074788;28;20045;-57
2022/09/17 07:39:04;;;;;;;;;;;11.90;99.90;;;;;;5075094;28;19920;-57
2022/09/17 07:41:30;;;;;;;;;;;11.80;99.90;;;;;;5072217;28;20267;-58
2022/09/17 07:43:56;;;;;;;;;;;11.70;99.90;;;;;;5074500;28;19921;-58
2022/09/17 07:46:22;;;;;;;;;;;12.10;99.90;;;;;;5074849;28;19990;-57
2022/09/17 07:48:48;;;;;;;;;;;12.30;99.90;;;;;;5072172;28;19920;-57
2022/09/17 07:51:14;;;;;;;;;;;12.60;99.90;;;;;;5050576;28;19936;-57
2022/09/17 07:53:40;;;;;;;;;;;12.80;99.90;;;;;;5047928;28;20359;-57
2022/09/17 07:56:06;;;;;;;;;;;13.10;99.90;;;;;;5056772;28;19939;-57
2022/09/17 07:58:33;;;;;;;;;;;13.30;99.90;;;;;;5055353;28;19955;-57
2022/09/17 08:01:07;;;;;;;;;;;13.70;99.90;;;;;;5055359;28;20298;-57
2022/09/17 08:03:32;;;;;;;;;;;14.20;99.90;;;;;;5041399;28;19925;-58
2022/09/17 08:06:05;;;;;;;;;;;13.70;99.90;;;;;;5057879;28;20283;-58
2022/09/17 08:08:32;;;;;;;;;;;13.30;99.90;;;;;;5053723;28;19986;-58
2022/09/17 08:11:02;;;;;;;;;;;12.90;99.90;;;;;;5054282;28;19947;-58
2022/09/17 08:13:28;;;;;;;;;;;12.80;99.90;;;;;;5056934;28;20382;-58
2022/09/17 08:15:56;;;;;;;;;;;12.60;99.90;;;;;;5071834;28;19974;-57
2022/09/17 08:18:22;;;;;;;;;;;12.60;99.90;;;;;;5073780;28;19924;-57
2022/09/17 08:20:47;;;;;;;;;;;12.90;99.90;;;;;;5074257;28;19920;-57
2022/09/17 08:23:13;;;;;;;;;;;13.30;99.90;;;;;;5073862;28;19943;-57
2022/09/17 08:25:38;;;;;;;;;;;13.70;99.90;;;;;;5073826;28;19927;-57
2022/09/17 08:28:04;;;;;;;;;;;14.20;99.90;;;;;;5073406;28;19928;-57
2022/09/17 08:30:30;;;;;;;;;;;14.30;99.90;;;;;;5074028;28;20018;-57
2022/09/17 08:32:56;;;;;;;;;;;14.80;99.90;;;;;;5066400;28;20340;-57
2022/09/17 08:35:23;;;;;;;;;;;15.10;99.90;;;;;;5067928;28;19924;-57
2022/09/17 08:37:48;;;;;;;;;;;14.70;99.90;;;;;;5048085;28;20321;-64
2022/09/17 08:40:16;;;;;;;;;;;14.20;99.90;;;;;;5061732;28;19920;-65
2022/09/17 08:42:57;;;;;;;;;;;14.10;99.90;;;;;;5073156;28;19930;-61
2022/09/17 08:45:23;;;;;;;;;;;14.20;99.90;;;;;;5072264;28;19935;-63
2022/09/17 08:47:48;;;;;;;;;;;14.50;99.90;;;;;;5070432;28;19920;-64
2022/09/17 08:50:26;;;;;;;;;;;15.10;99.90;;;;;;5072978;28;20017;-57
2022/09/17 08:53:10;;;;;;;;;;;15.40;99.90;;;;;;5069333;28;19921;-62
2022/09/17 08:55:38;;;;;;;;;;;15.70;99.90;;;;;;5071988;28;19963;-63
2022/09/17 08:58:07;;;;;;;;;;;16.30;99.90;;;;;;5071158;28;19916;-58
2022/09/17 09:00:38;;;;;;;;;;;16.90;99.90;;;;;;5048641;28;19935;-60
2022/09/17 09:03:03;;;;;;;;;;;16.90;99.90;;;;;;5051239;28;20282;-61
2022/09/17 09:05:35;;;;;;;;;;;16.00;99.90;;;;;;5072342;28;19920;-62
2022/09/17 09:08:24;;;;;;;;;;;15.10;99.90;;;;;;5071468;28;19927;-63
2022/09/17 09:10:58;;;;;;;;;;;14.60;99.90;;;;;;5061194;28;19920;-61
2022/09/17 09:13:27;;;;;;;;;;;13.70;99.90;;;;;;5072000;28;20006;-63
2022/09/17 09:16:01;;;;;;;;;;;13.30;99.90;;;;;;5054442;28;20282;-63
2022/09/17 09:18:30;;;;;;;;;;;13.20;99.90;;;;;;5072019;28;20045;-65
2022/09/17 09:21:07;;;;;;;;;;;12.90;99.90;;;;;;5072692;28;19934;-63
2022/09/17 09:23:33;;;;;;;;;;;12.90;99.90;;;;;;5072362;28;20385;-61
2022/09/17 09:26:18;;;;;;;;;;;13.10;99.90;;;;;;5072699;28;19927;-64
2022/09/17 09:28:47;;;;;;;;;;;13.50;99.90;;;;;;5071672;28;20001;-65
2022/09/17 09:31:25;;;;;;;;;;;14.20;99.90;;;;;;5072756;28;20286;-64
2022/09/17 09:33:50;;;;;;;;;;;14.40;99.90;;;;;;5041098;28;20015;-65
2022/09/17 09:36:20;;;;;;;;;;;14.60;99.90;;;;;;5072734;28;20054;-64
2022/09/17 09:38:52;;;;;;;;;;;14.70;99.90;;;;;;5072192;28;19978;-64
2022/09/17 09:41:31;;;;;;;;;;;15.10;99.90;;;;;;5072133;28;19924;-63
2022/09/17 09:44:00;;;;;;;;;;;15.00;99.90;;;;;;5060125;28;19924;-61
2022/09/17 09:46:40;;;;;;;;;;;14.80;99.90;;;;;;5072326;28;20403;-64
2022/09/17 09:49:25;;;;;;;;;;;14.90;99.90;;;;;;5070425;28;20286;-65
2022/09/17 09:52:09;;;;;;;;;;;14.60;99.90;;;;;;5057630;28;20404;-65
2022/09/17 09:54:41;;;;;;;;;;;13.90;99.90;;;;;;5072447;28;19990;-64
2022/09/17 09:57:10;;;;;;;;;;;13.70;99.90;;;;;;5070482;28;19920;-64
2022/09/17 09:59:36;;;;;;;;;;;13.30;99.90;;;;;;5063405;28;20260;-59
2022/09/17 10:02:02;;;;;;;;;;;13.00;99.90;;;;;;5062795;28;19916;-58
2022/09/17 10:04:28;;;;;;;;;;;12.50;99.90;;;;;;5065194;28;19948;-61
2022/09/17 10:06:58;;;;;;;;;;;12.50;99.90;;;;;;5030751;28;19921;-58
2022/09/17 10:09:24;;;;;;;;;;;12.60;99.90;;;;;;5071874;28;19931;-63
2022/09/17 10:12:00;;;;;;;;;;;12.80;99.90;;;;;;5071406;28;19924;-60
2022/09/17 10:14:33;;;;;;;;;;;13.50;99.90;;;;;;5071838;28;19927;-59
2022/09/17 10:17:16;;;;;;;;;;;13.70;99.90;;;;;;5074828;28;19920;-60
2022/09/17 10:19:42;;;;;;;;;;;14.10;99.90;;;;;;5058719;28;19964;-58
2022/09/17 10:22:18;;;;;;;;;;;14.20;99.90;;;;;;5075417;28;19967;-63
2022/09/17 10:24:44;;;;;;;;;;;14.50;99.90;;;;;;5071379;28;20432;-58
2022/09/17 10:27:13;;;;;;;;;;;14.50;99.90;;;;;;5056408;28;19921;-58
2022/09/17 10:30:02;;;;;;;;;;;15.20;99.90;;;;;;5049735;28;19971;-59
2022/09/17 10:32:28;;;;;;;;;;;15.40;99.90;;;;;;5056786;28;19928;-61
2022/09/17 10:34:57;;;;;;;;;;;14.90;99.90;;;;;;5061040;28;19966;-58
2022/09/17 10:37:33;;;;;;;;;;;14.90;99.90;;;;;;5068264;28;19928;-58
2022/09/17 10:39:59;;;;;;;;;;;14.70;99.90;;;;;;5075508;28;20320;-61
2022/09/17 10:42:24;;;;;;;;;;;14.80;99.90;;;;;;5074503;28;19924;-58
2022/09/17 10:44:51;;;;;;;;;;;15.30;99.90;;;;;;5070406;28;20338;-58
2022/09/17 10:47:35;;;;;;;;;;;15.10;99.90;;;;;;5057250;28;19981;-59
2022/09/17 10:50:04;;;;;;;;;;;15.10;99.90;;;;;;5062762;28;20382;-59
2022/09/17 10:52:41;;;;;;;;;;;15.40;99.90;;;;;;5041729;28;20178;-62
2022/09/17 10:55:11;;;;;;;;;;;15.80;99.90;;;;;;5061190;28;19928;-62
2022/09/17 10:57:54;;;;;;;;;;;15.80;99.90;;;;;;5061777;28;19928;-64
2022/09/17 11:00:21;;;;;;;;;;;16.10;99.90;;;;;;5059879;28;19989;-63
2022/09/17 11:02:47;;;;;;;;;;;16.60;99.90;;;;;;5060888;28;19929;-64
2022/09/17 11:05:15;;;;;;;;;;;16.20;99.90;;;;;;5061051;28;20024;-59
2022/09/17 11:07:46;;;;;;;;;;;15.70;99.90;;;;;;5063132;28;19994;-59
2022/09/17 11:10:17;;;;;;;;;;;15.50;99.90;;;;;;5064297;28;19921;-60
2022/09/17 11:12:52;;;;;;;;;;;15.20;99.90;;;;;;5060873;28;20341;-62
2022/09/17 11:15:28;;;;;;;;;;;15.30;99.90;;;;;;5062730;28;19939;-57
2022/09/17 11:18:00;;;;;;;;;;;15.00;99.90;;;;;;5062446;28;20378;-58
2022/09/17 11:20:44;;;;;;;;;;;15.50;99.90;;;;;;5059704;28;19935;-61
2022/09/17 11:23:19;;;;;;;;;;;16.30;99.90;;;;;;5061603;28;19920;-57
2022/09/17 11:25:49;;;;;;;;;;;16.40;99.90;;;;;;5058541;28;19921;-65
2022/09/17 11:28:27;;;;;;;;;;;16.40;99.90;;;;;;5064836;28;19928;-58
2022/09/17 11:31:06;;;;;;;;;;;16.60;99.90;;;;;;5057414;28;20011;-58
2022/09/17 11:33:50;;;;;;;;;;;17.10;99.90;;;;;;5059630;28;19928;-58
2022/09/17 11:36:20;;;;;;;;;;;17.20;99.90;;;;;;5050357;28;19935;-59
2022/09/17 11:38:49;;;;;;;;;;;17.50;99.90;;;;;;5068119;28;19921;-59
2022/09/17 11:41:18;;;;;;;;;;;17.80;99.90;;;;;;5066978;28;20285;-57
2022/09/17 11:44:03;;;;;;;;;;;17.50;99.90;;;;;;5070453;28;20386;-57
2022/09/17 11:46:36;;;;;;;;;;;18.00;99.90;;;;;;5026340;28;19920;-58
2022/09/17 11:49:09;;;;;;;;;;;17.90;99.90;;;;;;5067441;28;19920;-68
2022/09/17 11:51:49;;;;;;;;;;;17.50;99.90;;;;;;5068451;28;20373;-66
2022/09/17 11:54:19;;;;;;;;;;;16.50;99.90;;;;;;5066135;28;19921;-61
2022/09/17 11:56:48;;;;;;;;;;;16.00;99.90;;;;;;5066862;28;19921;-58
2022/09/17 11:59:37;;;;;;;;;;;16.40;99.90;;;;;;5063404;28;20536;-62
2022/09/17 12:02:08;;;;;;;;;;;17.00;99.90;;;;;;5056506;28;19989;-63
2022/09/17 12:04:43;;;;;;;;;;;17.00;99.90;;;;;;5064511;28;19924;-67
2022/09/17 12:07:31;;;;;;;;;;;17.50;99.90;;;;;;5069446;28;20021;-57
2022/09/17 12:10:05;;;;;;;;;;;17.50;99.90;;;;;;5042473;28;19920;-62
2022/09/17 12:12:39;;;;;;;;;;;16.40;99.90;;;;;;5073757;28;20317;-61
2022/09/17 12:15:12;;;;;;;;;;;15.90;99.90;;;;;;5069282;28;20379;-57
2022/09/17 12:17:41;;;;;;;;;;;15.90;99.90;;;;;;5048561;28;19921;-61
2022/09/17 12:20:27;;;;;;;;;;;15.80;99.90;;;;;;5066145;28;19974;-60
2022/09/17 12:22:54;;;;;;;;;;;16.40;99.90;;;;;;5063620;28;19924;-60
2022/09/17 12:25:21;;;;;;;;;;;16.70;99.90;;;;;;5046348;28;19921;-65
2022/09/17 12:27:59;;;;;;;;;;;18.00;99.90;;;;;;5064348;28;19927;-63
2022/09/17 12:30:31;;;;;;;;;;;18.10;99.90;;;;;;5065527;28;20281;-65
2022/09/17 12:33:05;;;;;;;;;;;17.00;99.90;;;;;;5062074;28;19925;-59
2022/09/17 12:35:33;;;;;;;;;;;16.30;99.90;;;;;;5058740;28;20361;-63
2022/09/17 12:38:18;;;;;;;;;;;15.30;99.90;;;;;;5038592;28;20055;-57
2022/09/17 12:41:22;;;;;;;;;;;14.90;99.90;;;;;;5037246;28;20477;-63
2022/09/17 12:43:50;;;;;;;;;;;15.40;99.90;;;;;;5012703;28;19921;-61
2022/09/17 12:46:22;;;;;;;;;;;15.90;99.90;;;;;;5029899;28;19960;-62
2022/09/17 12:48:47;;;;;;;;;;;15.80;99.90;;;;;;5044477;28;19920;-57
2022/09/17 12:51:24;;;;;;;;;;;17.00;99.90;;;;;;5053664;28;19931;-57
2022/09/17 12:53:58;;;;;;;;;;;17.40;99.90;;;;;;5054868;28;19928;-59
2022/09/17 12:56:30;;;;;;;;;;;15.90;99.90;;;;;;5062466;28;19929;-58
2022/09/17 12:58:55;;;;;;;;;;;16.00;99.90;;;;;;5055664;28;20669;-57
2022/09/17 13:01:27;;;;;;;;;;;17.70;99.90;;;;;;5065389;28;19931;-57
2022/09/17 13:03:56;;;;;;;;;;;20.20;99.90;;;;;;5066355;28;19986;-60
2022/09/17 13:06:41;;;;;;;;;;;20.00;99.20;;;;;;5052369;28;20405;-58
2022/09/17 13:09:25;;;;;;;;;;;19.30;99.90;;;;;;5054352;28;19967;-58
2022/09/17 13:12:02;;;;;;;;;;;19.40;99.90;;;;;;5059031;28;19921;-60
2022/09/17 13:14:27;;;;;;;;;;;17.60;99.90;;;;;;5055732;28;19921;-60
2022/09/17 13:16:59;;;;;;;;;;;17.50;99.90;;;;;;5057741;28;20441;-58
2022/09/17 13:19:28;;;;;;;;;;;17.30;99.90;;;;;;5057155;28;20386;-60
2022/09/17 13:22:05;;;;;;;;;;;17.50;99.90;;;;;;5061435;28;19935;-59
2022/09/17 13:24:32;;;;;;;;;;;16.30;99.90;;;;;;5066378;28;19929;-57
2022/09/17 13:27:00;;;;;;;;;;;15.30;99.90;;;;;;5067614;28;19916;-62
2022/09/17 13:29:43;;;;;;;;;;;14.90;99.90;;;;;;5072522;28;19966;-61
2022/09/17 13:32:28;;;;;;;;;;;15.50;99.90;;;;;;5071942;28;20015;-57
2022/09/17 13:34:53;;;;;;;;;;;15.40;99.90;;;;;;5072821;28;19982;-58
2022/09/17 13:37:19;;;;;;;;;;;15.60;99.90;;;;;;5070686;28;19924;-59
2022/09/17 13:39:46;;;;;;;;;;;15.80;99.90;;;;;;5053737;28;19920;-57
2022/09/17 13:42:18;;;;;;;;;;;16.10;99.90;;;;;;5072108;28;19920;-57
2022/09/17 13:44:45;;;;;;;;;;;16.00;99.90;;;;;;5053466;28;20370;-57
2022/09/17 13:47:23;;;;;;;;;;;16.10;99.90;;;;;;5068471;28;19921;-57
2022/09/17 13:49:59;;;;;;;;;;;16.40;99.90;;;;;;5072174;28;19946;-57
2022/09/17 13:52:36;;;;;;;;;;;16.40;99.90;;;;;;5071925;28;19966;-57
2022/09/17 13:55:02;;;;;;;;;;;17.10;99.90;;;;;;5072160;28;19943;-57
2022/09/17 13:57:29;;;;;;;;;;;17.70;99.90;;;;;;5072670;28;19921;-58
2022/09/17 13:59:57;;;;;;;;;;;16.90;99.90;;;;;;5072439;28;19966;-61
2022/09/17 14:02:22;;;;;;;;;;;16.50;99.90;;;;;;5050561;28;20431;-60
2022/09/17 14:04:49;;;;;;;;;;;16.40;99.90;;;;;;5071573;28;19920;-60
2022/09/17 14:07:22;;;;;;;;;;;16.00;99.90;;;;;;5071367;28;20007;-59
2022/09/17 14:10:01;;;;;;;;;;;16.10;99.90;;;;;;5070252;28;19924;-58
2022/09/17 14:12:57;;;;;;;;;;;16.10;99.90;;;;;;5063122;28;19928;-63
2022/09/17 14:15:34;;;;;;;;;;;16.50;99.90;;;;;;5071803;28;20007;-59
2022/09/17 14:18:03;;;;;;;;;;;16.80;99.50;;;;;;5069830;28;19920;-58
2022/09/17 14:20:29;;;;;;;;;;;17.00;99.50;;;;;;5071879;28;19920;-61
2022/09/17 14:22:58;;;;;;;;;;;18.40;98.20;;;;;;5071750;28;19920;-58
2022/09/17 14:25:44;;;;;;;;;;;17.50;97.00;;;;;;5072312;28;20289;-58
2022/09/17 14:28:19;;;;;;;;;;;17.40;97.60;;;;;;5053359;28;19921;-57
2022/09/17 14:30:45;;;;;;;;;;;16.30;99.20;;;;;;5072153;28;20365;-58
2022/09/17 14:33:30;;;;;;;;;;;15.70;99.90;;;;;;5071434;28;19943;-58